Current Weather

Orange County

Montgomery, New York (KMGJ)

Report from: Friday, February 23, 2024 2:54 PM EST
Current time: Friday, February 23, 2024 3:20 PM EST

Nearby weather – Weather history – Daily summaries
Weather forecast

Temperature7.2°C (45.0°F)
Dew point2.8°C (37.0°F)
Winds Calm
Visibility10 mi. (16.1 km)
Clouds Few clouds 2,800 ft. (853 m)
Altimeter29.44 in.Hg (997 mB)
Relative humidity74 %
Density altitude-278 ft. (-85 m)
Sea-level pressure99.7 kPa (997 mB, 29.45 in.Hg)
Remarks Fully automated report
System requires maintenance
Automated weather observing station with precipitation discriminator
Flight conditions Visual Meteorological Conditions
Raw dataKMGJ 231954Z AUTO 00000KT 10SM FEW028 07/03 A2944 RMK AO2 SLP972 T00720028 $
An error has occurred. This application may no longer respond until reloaded. Reload 🗙